Time;durP1;ratioP1;P1;durP2;ratioP2;P2;SDS_P1;SDS_P2;PMS_P1;PMS_P2;Temp;Humidity;BMP_temperature;BMP_pressure;BME280_temperature;BME280_humidity;BME280_pressure;Samples;Min_cycle;Max_cycle;Signal;HPM_P1;HPM_P2
2022/10/06 00:02:20;;;;;;;1.38;0.70;;;;;;;15.83;43.33;100020.91;5070218;28;20032;-71
2022/10/06 00:04:46;;;;;;;1.95;0.90;;;;;;;15.82;43.43;100020.09;5019171;28;20025;-69
2022/10/06 00:07:11;;;;;;;1.52;0.80;;;;;;;15.81;43.56;100023.66;5052165;28;20037;-69
2022/10/06 00:09:37;;;;;;;3.22;0.82;;;;;;;15.84;43.35;100025.22;5051513;28;20033;-69
2022/10/06 00:12:02;;;;;;;3.55;0.70;;;;;;;15.79;43.68;100015.06;5053311;28;20492;-69
2022/10/06 00:14:28;;;;;;;1.58;0.82;;;;;;;15.82;43.49;100027.16;5052111;28;20115;-68
2022/10/06 00:16:53;;;;;;;1.73;0.80;;;;;;;15.79;43.52;100025.59;5053405;28;20492;-69
2022/10/06 00:19:19;;;;;;;1.90;0.70;;;;;;;15.73;43.40;100018.13;5035080;28;20065;-69
2022/10/06 00:21:44;;;;;;;4.38;0.80;;;;;;;15.73;43.41;100010.22;5052086;28;20072;-68
2022/10/06 00:24:10;;;;;;;1.50;0.85;;;;;;;15.72;43.54;100012.03;5035269;28;20025;-69
2022/10/06 00:26:36;;;;;;;1.45;0.75;;;;;;;15.73;43.44;100015.50;5051932;28;20037;-69
2022/10/06 00:29:01;;;;;;;1.75;0.85;;;;;;;15.69;43.66;100020.16;5051271;28;20057;-68
2022/10/06 00:31:27;;;;;;;1.45;0.93;;;;;;;15.65;43.66;100010.81;5035184;28;20029;-69
2022/10/06 00:33:52;;;;;;;1.65;0.80;;;;;;;15.65;43.68;100015.25;5051683;28;20519;-69
2022/10/06 00:36:18;;;;;;;1.92;0.93;;;;;;;15.60;43.70;100006.88;5050729;28;20033;-68
2022/10/06 00:38:44;;;;;;;2.17;1.00;;;;;;;15.61;43.86;100012.03;5051293;28;20136;-68
2022/10/06 00:41:13;;;;;;;2.22;0.80;;;;;;;15.54;43.98;100003.78;5052871;28;20534;-69
2022/10/06 00:43:47;;;;;;;2.10;0.88;;;;;;;15.50;44.14;100004.97;5034790;28;20036;-69
2022/10/06 00:46:32;;;;;;;1.40;0.80;;;;;;;15.50;44.30;100012.84;5050996;28;20043;-69
2022/10/06 00:49:20;;;;;;;2.33;0.70;;;;;;;15.45;44.48;100003.63;5052570;28;20491;-69
2022/10/06 00:51:51;;;;;;;1.77;0.80;;;;;;;15.37;44.29;99993.72;5051715;28;20033;-69
2022/10/06 00:54:17;;;;;;;2.17;0.90;;;;;;;15.40;44.51;100006.59;5051137;28;20588;-69
2022/10/06 00:56:42;;;;;;;1.23;0.60;;;;;;;15.36;44.55;99999.91;5051120;28;20033;-68
2022/10/06 00:59:13;;;;;;;1.40;0.90;;;;;;;15.36;44.45;100006.00;5034846;28;20041;-69
2022/10/06 01:01:40;;;;;;;2.30;1.00;;;;;;;15.37;44.65;100014.75;5051284;28;20029;-69
2022/10/06 01:04:08;;;;;;;2.63;0.77;;;;;;;15.35;44.70;100012.25;5034775;28;20041;-69
2022/10/06 01:06:48;;;;;;;1.30;0.73;;;;;;;15.31;44.71;100008.16;5034655;28;20036;-69
2022/10/06 01:09:14;;;;;;;1.13;0.70;;;;;;;15.30;44.59;100006.47;5018206;28;20040;-69
2022/10/06 01:11:40;;;;;;;2.22;0.73;;;;;;;15.27;44.61;100006.69;5034540;28;20029;-69
2022/10/06 01:14:05;;;;;;;2.60;1.20;;;;;;;15.24;44.68;100008.72;5018000;28;20515;-69
2022/10/06 01:16:31;;;;;;;2.25;1.08;;;;;;;15.18;44.58;99999.50;5050997;28;20052;-69
2022/10/06 01:18:57;;;;;;;1.55;0.90;;;;;;;15.21;44.61;100009.78;5048075;28;20032;-70
2022/10/06 01:21:33;;;;;;;1.70;0.80;;;;;;;15.19;44.81;99998.56;5037486;28;20090;-69
2022/10/06 01:24:01;;;;;;;2.33;0.80;;;;;;;15.14;44.85;100006.78;5055102;28;20032;-70
2022/10/06 01:26:26;;;;;;;1.75;0.80;;;;;;;15.12;44.96;99994.72;5070995;28;20043;-69
2022/10/06 01:28:52;;;;;;;1.77;0.90;;;;;;;15.07;44.98;99995.06;5054077;28;20029;-69
2022/10/06 01:31:17;;;;;;;1.35;0.80;;;;;;;15.01;45.18;99980.56;5054269;28;20033;-69
2022/10/06 01:33:42;;;;;;;1.30;0.80;;;;;;;15.05;45.20;99988.25;5054049;28;20055;-69
2022/10/06 01:36:08;;;;;;;1.67;1.00;;;;;;;15.01;45.24;99985.84;5070920;28;20408;-69
2022/10/06 01:38:35;;;;;;;4.00;1.00;;;;;;;14.97;45.34;99984.38;5070862;28;20039;-69
2022/10/06 01:41:01;;;;;;;2.38;0.80;;;;;;;14.98;45.29;99986.06;5054792;28;20083;-69
2022/10/06 01:43:26;;;;;;;1.38;0.90;;;;;;;14.96;45.45;99982.72;5054136;28;20040;-69
2022/10/06 01:45:55;;;;;;;3.13;1.20;;;;;;;14.95;45.71;99975.78;5037703;28;20045;-69
2022/10/06 01:48:20;;;;;;;1.73;0.90;;;;;;;14.94;45.61;99974.13;5055862;28;20111;-69
2022/10/06 01:50:46;;;;;;;2.20;1.00;;;;;;;14.85;45.62;99964.28;5058522;28;20440;-69
2022/10/06 01:53:11;;;;;;;2.03;1.10;;;;;;;14.90;45.79;99980.53;5058114;28;20178;-70
2022/10/06 01:55:37;;;;;;;2.80;1.10;;;;;;;14.91;46.08;99978.75;5058312;28;20082;-69
2022/10/06 01:58:02;;;;;;;1.90;1.00;;;;;;;14.87;45.92;99975.53;5074927;28;20028;-69
2022/10/06 02:00:28;;;;;;;1.48;1.00;;;;;;;14.86;46.02;99975.63;5074764;28;20028;-69
2022/10/06 02:02:53;;;;;;;3.08;0.90;;;;;;;14.81;45.97;99974.16;5058121;28;20101;-70
2022/10/06 02:05:20;;;;;;;3.35;1.20;;;;;;;14.81;45.74;99976.78;5076049;28;20028;-71
2022/10/06 02:07:45;;;;;;;3.60;1.30;;;;;;;14.77;45.90;99975.38;5074492;28;20052;-68
2022/10/06 02:10:10;;;;;;;1.67;0.98;;;;;;;14.79;46.03;99983.97;5074299;28;20553;-71
2022/10/06 02:12:36;;;;;;;1.80;0.90;;;;;;;14.73;46.02;99979.16;5074320;28;20031;-71
2022/10/06 02:15:02;;;;;;;1.80;0.85;;;;;;;14.78;46.03;99989.34;5057815;28;20040;-70
2022/10/06 02:17:28;;;;;;;2.22;0.90;;;;;;;14.70;45.82;99981.19;5074002;28;20156;-68
2022/10/06 02:19:53;;;;;;;4.35;0.90;;;;;;;14.69;46.02;99983.00;5074540;28;20024;-70
2022/10/06 02:22:19;;;;;;;1.60;0.90;;;;;;;14.67;46.11;99989.28;5074013;28;20048;-71
2022/10/06 02:24:44;;;;;;;5.20;1.20;;;;;;;14.70;45.97;99983.81;5057732;28;20089;-69
2022/10/06 02:27:10;;;;;;;2.35;1.02;;;;;;;14.68;46.10;99989.19;5074630;28;20373;-70
2022/10/06 02:29:35;;;;;;;1.40;0.88;;;;;;;14.68;46.13;99985.72;5074282;28;20032;-70
2022/10/06 02:32:01;;;;;;;2.80;1.13;;;;;;;14.61;46.15;99977.44;5075199;28;20525;-70
2022/10/06 02:34:26;;;;;;;1.27;0.80;;;;;;;14.61;46.52;99974.81;5074042;28;20033;-70
2022/10/06 02:36:52;;;;;;;1.35;0.90;;;;;;;14.64;46.48;99983.31;5057190;28;20452;-69
2022/10/06 02:39:18;;;;;;;1.20;0.80;;;;;;;14.60;46.35;99976.59;5057569;28;20051;-70
2022/10/06 02:41:43;;;;;;;1.27;0.90;;;;;;;14.62;46.56;99977.31;5057324;28;20479;-70
2022/10/06 02:44:09;;;;;;;1.45;0.82;;;;;;;14.60;46.37;99981.84;5075006;28;20032;-70
2022/10/06 02:46:34;;;;;;;1.90;0.70;;;;;;;14.62;46.41;99984.38;5073716;28;20036;-69
2022/10/06 02:49:00;;;;;;;1.42;0.93;;;;;;;14.60;46.70;99981.84;5074912;28;20036;-69
2022/10/06 02:51:25;;;;;;;1.33;0.90;;;;;;;14.55;46.54;99968.19;5057438;28;20394;-70
2022/10/06 02:53:51;;;;;;;1.52;0.85;;;;;;;14.60;46.82;99979.22;5040407;28;20123;-70
2022/10/06 02:56:21;;;;;;;1.95;0.80;;;;;;;14.58;46.73;99975.84;5056888;28;20569;-70
2022/10/06 02:58:47;;;;;;;1.83;0.93;;;;;;;14.56;46.93;99974.28;5073118;28;20037;-70
2022/10/06 03:01:14;;;;;;;3.40;0.95;;;;;;;14.54;46.93;99970.94;5072909;28;20058;-70
2022/10/06 03:03:40;;;;;;;1.55;0.85;;;;;;;14.54;46.88;99973.56;5040203;28;20047;-69
2022/10/06 03:06:22;;;;;;;1.48;0.90;;;;;;;14.52;47.16;99964.97;5056671;28;20025;-70
2022/10/06 03:09:07;;;;;;;1.75;0.90;;;;;;;14.51;47.06;99965.91;5057961;28;20028;-69
2022/10/06 03:11:34;;;;;;;1.40;1.00;;;;;;;14.50;47.13;99965.06;5073383;28;20476;-69
2022/10/06 03:13:59;;;;;;;1.33;0.82;;;;;;;14.52;47.23;99968.41;5056556;28;20369;-70
2022/10/06 03:16:29;;;;;;;1.90;1.10;;;;;;;14.52;47.12;99965.78;5056426;28;20114;-70
2022/10/06 03:18:54;;;;;;;2.05;0.98;;;;;;;14.52;47.51;99964.97;5056649;28;20020;-69
2022/10/06 03:21:22;;;;;;;1.95;1.02;;;;;;;14.50;47.26;99974.72;5040237;28;20058;-70
2022/10/06 03:23:48;;;;;;;3.97;1.00;;;;;;;14.48;47.38;99966.94;5039659;28;20475;-70
2022/10/06 03:26:16;;;;;;;2.35;1.10;;;;;;;14.45;47.52;99959.28;5056256;28;20089;-70
2022/10/06 03:28:42;;;;;;;3.05;1.00;;;;;;;14.45;47.49;99959.28;5056542;28;20506;-69
2022/10/06 03:31:07;;;;;;;2.53;1.25;;;;;;;14.38;47.35;99948.41;5072475;28;20024;-70
2022/10/06 03:33:33;;;;;;;4.60;1.10;;;;;;;14.42;47.68;99960.38;5056313;28;20388;-70
2022/10/06 03:36:19;;;;;;;2.58;1.00;;;;;;;14.40;47.58;99954.38;5056386;28;20024;-68
2022/10/06 03:38:45;;;;;;;3.40;1.13;;;;;;;14.38;47.66;99950.19;5074376;28;20094;-72
2022/10/06 03:41:12;;;;;;;4.82;1.02;;;;;;;14.33;47.71;99954.94;5055662;28;20040;-72
2022/10/06 03:43:38;;;;;;;1.52;0.82;;;;;;;14.29;47.54;99954.31;5056371;28;20035;-73
2022/10/06 03:46:04;;;;;;;5.47;1.05;;;;;;;14.45;53.56;99943.53;5056069;28;20036;-72
2022/10/06 03:48:32;;;;;;;1.42;0.90;;;;;;;14.46;50.56;99950.47;5072393;28;20499;-72
2022/10/06 03:51:01;;;;;;;3.90;1.00;;;;;;;14.47;49.81;99955.63;5055802;28;20113;-73
2022/10/06 03:53:28;;;;;;;1.20;0.93;;;;;;;14.43;49.01;99961.19;5056201;28;20036;-70
2022/10/06 03:56:13;;;;;;;1.60;0.95;;;;;;;14.40;48.55;99957.00;5072411;28;20025;-70
2022/10/06 03:58:39;;;;;;;2.20;1.27;;;;;;;14.37;48.32;99956.41;5055786;28;20040;-71
2022/10/06 04:01:07;;;;;;;2.03;1.20;;;;;;;14.34;48.47;99954.81;5056007;28;20578;-70
2022/10/06 04:03:33;;;;;;;1.38;0.90;;;;;;;14.34;47.84;99952.19;5055687;28;20029;-71
2022/10/06 04:06:00;;;;;;;1.50;1.00;;;;;;;14.35;47.82;99945.16;5056006;28;20071;-72
2022/10/06 04:08:25;;;;;;;2.05;0.98;;;;;;;14.42;49.13;99946.38;5055521;28;20404;-69
2022/10/06 04:10:51;;;;;;;3.83;1.20;;;;;;;14.39;48.95;99939.59;5071945;28;20024;-69
2022/10/06 04:13:17;;;;;;;1.88;1.17;;;;;;;14.38;48.62;99940.53;5055732;28;20032;-70
2022/10/06 04:15:43;;;;;;;5.28;1.30;;;;;;;14.43;48.03;99946.28;5039100;28;20040;-71
2022/10/06 04:18:09;;;;;;;1.70;1.10;;;;;;;14.40;48.13;99930.72;5071902;28;20056;-73
2022/10/06 04:20:35;;;;;;;2.15;1.10;;;;;;;14.46;47.90;99940.78;5039331;28;20123;-70
2022/10/06 04:23:00;;;;;;;2.80;1.23;;;;;;;14.46;47.90;99943.41;5055301;28;20040;-69
2022/10/06 04:25:26;;;;;;;2.60;1.20;;;;;;;14.78;47.13;99948.09;5054445;28;20035;-70
2022/10/06 04:27:52;;;;;;;1.50;1.00;;;;;;;15.13;46.03;99938.53;5037209;28;20036;-69
2022/10/06 04:30:17;;;;;;;3.08;1.20;;;;;;;15.47;45.24;99938.56;5071568;28;20556;-70
2022/10/06 04:32:44;;;;;;;3.30;1.17;;;;;;;16.01;43.93;99944.91;5055112;28;20044;-70
2022/10/06 04:35:10;;;;;;;2.25;1.40;;;;;;;16.53;42.63;99938.06;5071888;28;20606;-71
2022/10/06 04:37:35;;;;;;;3.42;1.40;;;;;;;17.13;41.42;99940.19;5055013;28;20099;-69
2022/10/06 04:40:01;;;;;;;1.27;0.90;;;;;;;17.75;40.14;99940.19;5071588;28;20028;-70
2022/10/06 04:42:28;;;;;;;2.63;1.00;;;;;;;18.35;38.73;99937.56;5071652;28;20029;-70
2022/10/06 04:44:54;;;;;;;7.75;1.05;;;;;;;18.94;37.39;99939.25;5055289;28;20480;-70
2022/10/06 04:47:19;;;;;;;3.38;1.00;;;;;;;19.48;36.19;99931.59;5054965;28;20103;-74
2022/10/06 04:49:45;;;;;;;2.00;0.90;;;;;;;20.46;43.68;99946.13;5054927;28;20105;-78
2022/10/06 04:52:10;;;;;;;3.80;1.20;;;;;;;21.35;36.97;99944.31;5055436;28;20029;-70
2022/10/06 04:54:36;;;;;;;3.15;1.20;;;;;;;21.73;33.43;99937.75;5055364;28;20039;-69
2022/10/06 04:57:01;;;;;;;13.35;1.80;;;;;;;;;;5072658;28;20468;-70
2022/10/06 05:02:10;;;;;;;4.20;1.40;;;;;;;22.89;29.94;99938.78;5057695;28;20098;-71
2022/10/06 05:04:36;;;;;;;3.00;1.52;;;;;;;23.33;29.42;99946.41;5054659;28;20028;-70
2022/10/06 05:07:01;;;;;;;7.13;1.27;;;;;;;23.70;28.45;99936.13;5072559;28;20035;-71
2022/10/06 05:09:27;;;;;;;3.90;1.30;;;;;;;24.18;27.86;99945.75;5054490;28;20035;-70
2022/10/06 05:11:52;;;;;;;6.53;1.20;;;;;;;24.43;27.44;99950.06;5054948;28;20051;-71
2022/10/06 05:14:18;;;;;;;6.18;1.38;;;;;;;24.72;27.25;99941.38;5071878;28;20378;-74
2022/10/06 05:16:43;;;;;;;2.22;1.20;;;;;;;25.26;27.88;99943.03;5059701;28;20049;-80
2022/10/06 05:19:10;;;;;;;2.15;1.13;;;;;;;25.57;26.95;99932.19;5052222;28;20025;-78
2022/10/06 05:21:35;;;;;;;5.35;1.50;;;;;;;26.13;26.77;99936.19;5047339;28;20537;-78
2022/10/06 05:24:02;;;;;;;3.60;1.20;;;;;;;26.71;25.72;99946.88;5035357;28;20033;-77
2022/10/06 05:26:30;;;;;;;9.30;1.40;;;;;;;27.20;25.26;99950.50;5052018;28;20029;-78
2022/10/06 05:28:56;;;;;;;4.95;1.13;;;;;;;27.51;24.72;99938.56;5051201;28;20503;-78
2022/10/06 05:31:22;;;;;;;10.70;1.63;;;;;;;27.96;24.40;99953.25;5034362;28;20029;-74
2022/10/06 05:33:48;;;;;;;6.80;1.58;;;;;;;28.34;23.80;99954.59;5032798;28;20036;-75
2022/10/06 05:36:15;;;;;;;8.10;1.55;;;;;;;28.64;23.59;99943.50;5063143;28;20399;-76
2022/10/06 05:38:41;;;;;;;7.37;1.73;;;;;;;28.95;22.94;99945.53;5055049;28;20507;-77
2022/10/06 05:41:19;;;;;;;7.38;1.35;;;;;;;29.16;22.53;99949.88;5054670;28;20041;-77
2022/10/06 05:43:45;;;;;;;13.60;1.40;;;;;;;29.44;22.16;99956.03;5067525;28;20108;-77
2022/10/06 05:46:18;;;;;;;8.27;1.65;;;;;;;29.66;22.03;99948.53;5034816;28;20119;-76
2022/10/06 05:48:48;;;;;;;17.10;1.60;;;;;;;29.87;21.56;99950.97;5035546;28;20045;-77
2022/10/06 05:51:13;;;;;;;5.82;1.40;;;;;;;30.07;21.69;99955.41;5018843;28;20469;-73
2022/10/06 05:53:39;;;;;;;10.60;1.70;;;;;;;30.22;21.78;99950.56;5034299;28;20083;-71
2022/10/06 05:56:08;;;;;;;9.75;1.60;;;;;;;30.39;21.43;99956.25;5034145;28;20044;-72
2022/10/06 05:58:34;;;;;;;16.52;1.90;;;;;;;30.48;20.91;99960.34;5033959;28;20485;-70
2022/10/06 06:01:10;;;;;;;14.27;1.60;;;;;;;30.56;20.50;99942.28;5034078;28;20111;-70
2022/10/06 06:03:36;;;;;;;5.22;1.63;;;;;;;30.81;20.35;99953.06;5050326;28;20476;-70
2022/10/06 06:06:02;;;;;;;10.00;1.70;;;;;;;30.91;19.89;99961.47;5017745;28;20029;-71
2022/10/06 06:08:28;;;;;;;7.15;1.55;;;;;;;31.07;19.86;99962.81;5033984;28;20033;-70
2022/10/06 06:10:53;;;;;;;6.97;1.35;;;;;;;31.27;19.55;99965.31;5017749;28;20037;-76
2022/10/06 06:13:22;;;;;;;10.52;1.70;;;;;;;31.29;19.05;99967.78;5051702;28;20032;-72
2022/10/06 06:16:00;;;;;;;15.32;2.20;;;;;;;30.95;18.65;99972.66;5018387;28;20041;-68
2022/10/06 06:18:28;;;;;;;;;;;;;;;30.69;19.12;99968.31;5052322;28;20040;-70
2022/10/06 06:21:03;;;;;;;9.82;2.13;;;;;;;30.51;18.84;99972.56;5050696;28;19913;-69
2022/10/06 06:23:38;;;;;;;8.63;1.50;;;;;;;30.42;19.34;99966.59;5050922;28;20021;-69
2022/10/06 06:26:06;;;;;;;8.20;1.63;;;;;;;30.36;19.49;99972.00;5051352;28;20029;-71
2022/10/06 06:28:31;;;;;;;19.27;2.53;;;;;;;30.30;19.44;99969.16;5050754;28;20484;-74
2022/10/06 06:31:04;;;;;;;13.65;1.88;;;;;;;30.26;19.29;99961.72;5017754;28;20032;-67
2022/10/06 06:33:30;;;;;;;17.15;2.20;;;;;;;30.06;19.61;99964.50;5050955;28;20086;-72
2022/10/06 06:35:56;;;;;;;6.05;1.55;;;;;;;29.92;19.56;99961.91;5021956;28;20053;-70
2022/10/06 06:38:22;;;;;;;8.00;1.63;;;;;;;30.03;19.96;99965.78;5037926;28;20025;-71
2022/10/06 06:40:48;;;;;;;22.42;3.58;;;;;;;30.08;19.61;99970.53;5021413;28;20039;-70
2022/10/06 06:43:13;;;;;;;20.63;4.72;;;;;;;30.13;19.80;99970.72;5037216;28;20037;-68
2022/10/06 06:45:39;;;;;;;15.95;4.00;;;;;;;30.25;19.50;99966.28;5053669;28;20025;-67
2022/10/06 06:48:04;;;;;;;19.33;3.85;;;;;;;30.61;19.84;99975.59;5037424;28;20543;-66
2022/10/06 06:50:31;;;;;;;13.23;2.83;;;;;;;30.81;18.83;99972.75;5054038;28;20059;-67
2022/10/06 06:52:56;;;;;;;7.68;1.25;;;;;;;30.75;18.26;99962.84;5053791;28;20074;-69
2022/10/06 06:55:22;;;;;;;8.40;1.23;;;;;;;30.98;18.00;99969.53;5054081;28;20451;-67
2022/10/06 06:57:48;;;;;;;10.63;2.10;;;;;;;31.39;18.61;99979.72;5053931;28;20065;-69
2022/10/06 07:00:15;;;;;;;18.67;3.08;;;;;;;31.64;18.02;99968.03;5037262;28;20032;-66
2022/10/06 07:02:41;;;;;;;26.80;4.97;;;;;;;31.88;17.65;99962.78;5054741;28;20029;-68
2022/10/06 07:05:07;;;;;;;17.05;4.18;;;;;;;32.31;17.83;99960.97;5054086;28;20385;-67
2022/10/06 07:07:32;;;;;;;23.73;5.45;;;;;;;32.44;17.14;99963.47;5053971;28;20115;-68
2022/10/06 07:09:58;;;;;;;25.23;6.60;;;;;;;32.55;17.18;99961.88;5037056;28;20021;-66
2022/10/06 07:12:24;;;;;;;22.58;6.80;;;;;;;32.42;17.67;99969.13;5053769;28;20503;-68
2022/10/06 07:25:45;;;;;;;11.52;3.40;;;;;;;31.53;17.56;99955.31;5039694;28;20118;-66
2022/10/06 07:28:11;;;;;;;15.38;2.53;;;;;;;31.25;18.01;99956.63;5020527;28;20068;-67
2022/10/06 07:30:36;;;;;;;13.25;3.03;;;;;;;31.18;18.09;99956.66;5020548;28;20099;-68
2022/10/06 07:33:03;;;;;;;8.55;2.15;;;;;;;30.65;18.10;99951.75;5020262;28;20060;-69
2022/10/06 07:35:29;;;;;;;10.32;1.95;;;;;;;30.38;18.02;99948.38;5036970;28;20033;-70
2022/10/06 07:37:56;;;;;;;7.95;2.00;;;;;;;30.07;18.56;99942.75;5056094;28;20056;-71
2022/10/06 07:40:22;;;;;;;7.05;2.17;;;;;;;30.19;19.42;99939.38;5055589;28;20103;-73
2022/10/06 07:42:47;;;;;;;10.13;2.25;;;;;;;30.10;19.26;99945.03;5022390;28;20065;-76
2022/10/06 07:48:13;;;;;;;4.70;1.67;;;;;;;29.33;19.32;99944.06;5058156;28;20099;-77
2022/10/06 07:50:43;;;;;;;10.32;1.83;;;;;;;29.14;19.80;99943.03;5038424;28;20029;-81
2022/10/06 07:53:08;;;;;;;7.40;1.42;;;;;;;29.50;20.24;99941.75;5035235;28;20108;-69
2022/10/06 07:55:38;;;;;;;7.57;2.00;;;;;;;30.04;19.69;99932.44;5053144;28;20116;-72
2022/10/06 07:58:17;;;;;;;9.75;1.45;;;;;;;30.01;19.43;99937.41;5020571;28;20078;-73
2022/10/06 08:00:43;;;;;;;9.38;1.35;;;;;;;29.64;18.99;99931.78;5037897;28;20078;-70
2022/10/06 08:03:09;;;;;;;3.42;1.30;;;;;;;29.62;19.76;99920.38;5036401;28;20408;-72
2022/10/06 08:05:38;;;;;;;5.05;1.42;;;;;;;29.91;18.69;99919.06;5020267;28;20440;-79
2022/10/06 08:08:04;;;;;;;8.55;1.50;;;;;;;29.95;19.52;99926.47;5036370;28;20028;-71
2022/10/06 08:10:29;;;;;;;9.50;1.20;;;;;;;30.22;18.42;99923.63;5036298;28;20017;-70
2022/10/06 08:12:55;;;;;;;4.07;1.35;;;;;;;30.38;18.70;99938.47;5036432;28;20083;-68
2022/10/06 08:15:20;;;;;;;9.02;1.42;;;;;;;30.29;18.84;99912.81;5036287;28;20029;-73
2022/10/06 08:17:46;;;;;;;12.02;1.52;;;;;;;30.41;18.98;99916.50;5019306;28;20526;-69
2022/10/06 08:20:12;;;;;;;4.78;1.33;;;;;;;30.65;18.95;99920.22;5021278;28;20127;-72
2022/10/06 08:22:38;;;;;;;12.52;1.80;;;;;;;30.61;18.69;99918.19;5020473;28;20116;-70
2022/10/06 08:25:08;;;;;;;7.55;1.20;;;;;;;30.49;18.67;99918.09;5036534;28;20064;-69
2022/10/06 08:27:34;;;;;;;25.10;1.60;;;;;;;30.47;18.81;99910.22;5052273;28;20108;-69
2022/10/06 08:29:59;;;;;;;7.07;1.30;;;;;;;30.70;18.12;99911.50;5035879;28;20404;-70
2022/10/06 08:32:25;;;;;;;9.45;1.95;;;;;;;30.60;18.27;99913.84;5019157;28;20044;-68
2022/10/06 08:34:51;;;;;;;5.63;2.20;;;;;;;31.02;18.88;99912.25;5051706;28;20087;-69
2022/10/06 08:37:22;;;;;;;6.95;2.10;;;;;;;31.53;18.13;99904.03;5018850;28;20024;-73
2022/10/06 08:39:52;;;;;;;4.13;1.88;;;;;;;32.02;17.80;99912.13;5035921;28;20021;-70
2022/10/06 08:42:25;;;;;;;6.50;1.75;;;;;;;32.52;17.19;99914.50;5039923;28;20062;-68
2022/10/06 08:44:55;;;;;;;4.13;1.35;;;;;;;32.90;16.82;99910.56;5054125;28;20032;-67
2022/10/06 08:47:21;;;;;;;5.95;1.45;;;;;;;33.28;16.12;99909.25;5018833;28;20099;-70
2022/10/06 08:49:48;;;;;;;7.97;1.92;;;;;;;33.61;15.99;99910.47;5051926;28;20057;-70
2022/10/06 08:52:25;;;;;;;5.95;1.88;;;;;;;33.96;16.06;99908.72;5038388;28;20035;-70
2022/10/06 08:55:09;;;;;;;8.43;1.40;;;;;;;34.20;15.50;99904.78;5054703;28;20021;-69
2022/10/06 08:57:40;;;;;;;2.80;1.17;;;;;;;34.36;15.10;99900.47;5071436;28;20098;-71
2022/10/06 09:00:10;;;;;;;5.25;1.30;;;;;;;34.53;15.04;99908.63;5054358;28;20135;-71
2022/10/06 09:02:40;;;;;;;2.80;1.30;;;;;;;34.48;14.79;99905.03;5054845;28;20090;-70
2022/10/06 09:05:06;;;;;;;2.72;1.08;;;;;;;34.65;15.06;99902.28;5055604;28;20024;-70
2022/10/06 09:07:37;;;;;;;3.50;1.20;;;;;;;34.75;14.76;99902.47;5071229;28;20487;-70
2022/10/06 09:10:06;;;;;;;4.22;0.90;;;;;;;34.50;15.33;99902.88;5054764;28;20025;-71
2022/10/06 09:12:35;;;;;;;2.67;1.20;;;;;;;34.51;15.21;99893.69;5072703;28;20416;-70
2022/10/06 09:15:13;;;;;;;6.00;1.08;;;;;;;34.63;14.63;99893.59;5038132;28;20119;-70
2022/10/06 09:17:41;;;;;;;6.45;1.20;;;;;;;34.75;15.25;99887.03;5071022;28;20055;-71
2022/10/06 09:20:19;;;;;;;7.93;1.38;;;;;;;34.72;14.81;99901.03;5054753;28;20025;-71
2022/10/06 09:22:44;;;;;;;7.45;1.58;;;;;;;34.72;15.10;99887.50;5071514;28;20028;-71
2022/10/06 09:25:18;;;;;;;4.63;1.08;;;;;;;34.54;14.91;99887.78;5037824;28;20400;-70
2022/10/06 09:27:49;;;;;;;5.68;1.35;;;;;;;34.58;15.22;99881.59;5037438;28;20094;-69
2022/10/06 09:30:15;;;;;;;6.05;1.55;;;;;;;34.62;14.97;99876.50;5038968;28;20388;-69
2022/10/06 09:32:45;;;;;;;5.00;1.40;;;;;;;34.48;15.26;99881.44;5071070;28;20036;-70
2022/10/06 09:35:22;;;;;;;8.50;1.50;;;;;;;34.34;15.46;99880.13;5037954;28;20031;-71
2022/10/06 09:38:02;;;;;;;3.40;1.20;;;;;;;34.26;15.01;99870.53;5054689;28;20463;-70
2022/10/06 09:40:39;;;;;;;7.70;1.50;;;;;;;34.38;15.18;99873.97;5055565;28;20028;-70
2022/10/06 09:43:26;;;;;;;5.07;1.25;;;;;;;34.50;15.17;99875.78;5054823;28;20035;-71
2022/10/06 09:46:16;;;;;;;2.70;1.00;;;;;;;34.49;15.79;99871.41;5054550;28;20046;-70
2022/10/06 09:48:42;;;;;;;3.05;1.30;;;;;;;34.33;15.95;99860.34;5071322;28;20166;-70
2022/10/06 09:51:14;;;;;;;5.72;1.30;;;;;;;34.42;15.55;99866.97;5054201;28;20471;-70
2022/10/06 09:53:40;;;;;;;4.22;1.00;;;;;;;34.43;15.68;99871.34;5053963;28;20098;-71
2022/10/06 09:56:14;;;;;;;2.00;0.95;;;;;;;34.27;15.96;99869.47;5037571;28;20060;-70
2022/10/06 09:58:45;;;;;;;7.25;1.27;;;;;;;34.23;15.97;99862.88;5037683;28;20035;-71
2022/10/06 10:01:11;;;;;;;4.03;1.00;;;;;;;34.09;15.39;99856.91;5054922;28;20480;-69
2022/10/06 10:03:40;;;;;;;3.67;1.20;;;;;;;34.09;15.45;99859.63;5037270;28;20039;-70
2022/10/06 10:06:07;;;;;;;2.28;1.15;;;;;;;34.03;15.73;99857.91;5053628;28;20064;-70
2022/10/06 10:08:33;;;;;;;2.78;0.90;;;;;;;33.94;15.72;99854.78;5038801;28;20034;-70
2022/10/06 10:13:52;;;;;;;3.63;1.30;;;;;;;33.78;15.68;99855.56;5075832;28;20106;-70
2022/10/06 10:16:18;;;;;;;2.95;1.30;;;;;;;33.70;16.27;99844.06;5057826;28;20119;-70
2022/10/06 10:18:46;;;;;;;2.33;0.82;;;;;;;33.60;16.36;99840.31;5075397;28;20036;-71
2022/10/06 10:21:12;;;;;;;6.25;1.13;;;;;;;33.42;16.48;99846.75;5058368;28;20121;-70
2022/10/06 10:23:41;;;;;;;3.33;1.15;;;;;;;33.20;16.43;99839.28;5057785;28;20454;-72
2022/10/06 10:26:37;;;;;;;3.33;1.13;;;;;;;33.03;16.21;99841.06;5058060;28;20036;-73
2022/10/06 10:29:06;;;;;;;4.45;1.20;;;;;;;32.87;16.38;99829.09;5075600;28;20032;-71
2022/10/06 10:31:49;;;;;;;2.97;0.95;;;;;;;32.70;16.54;99837.91;5074068;28;20036;-70
2022/10/06 10:34:23;;;;;;;4.05;0.90;;;;;;;32.45;17.04;99821.91;5074487;28;20038;-69
2022/10/06 10:36:58;;;;;;;2.42;0.95;;;;;;;32.16;17.39;99823.66;5058096;28;20035;-68
2022/10/06 10:39:37;;;;;;;5.38;1.30;;;;;;;31.93;17.26;99825.22;5074003;28;20029;-71
2022/10/06 10:42:14;;;;;;;3.83;1.00;;;;;;;31.79;17.54;99818.38;5057835;28;20089;-70
2022/10/06 10:45:13;;;;;;;3.93;1.10;;;;;;;31.62;17.77;99797.44;5058922;28;20024;-74
2022/10/06 10:47:44;;;;;;;3.45;1.00;;;;;;;31.61;17.96;99803.06;5055738;28;20036;-70
2022/10/06 10:50:16;;;;;;;4.53;1.13;;;;;;;31.48;18.41;99804.03;5056578;28;20117;-71
2022/10/06 10:52:41;;;;;;;3.05;0.93;;;;;;;31.38;18.42;99797.31;5056532;28;20500;-72
2022/10/06 10:55:22;;;;;;;5.13;0.95;;;;;;;31.26;18.13;99780.25;5039913;28;20039;-70
2022/10/06 10:57:48;;;;;;;3.95;1.10;;;;;;;31.27;18.47;99792.69;5040168;28;20036;-73
2022/10/06 11:00:21;;;;;;;7.53;1.20;;;;;;;31.15;18.24;99787.25;5039675;28;20419;-70
2022/10/06 11:02:47;;;;;;;2.55;1.10;;;;;;;30.99;18.43;99772.50;5040374;28;20033;-70
2022/10/06 11:05:27;;;;;;;7.18;1.30;;;;;;;30.94;18.70;99782.28;5039476;28;20143;-71
2022/10/06 11:08:11;;;;;;;7.72;1.30;;;;;;;30.80;18.79;99782.44;5039724;28;20040;-73
2022/10/06 11:10:49;;;;;;;5.55;1.55;;;;;;;30.65;18.81;99771.22;5072548;28;20060;-69
2022/10/06 11:13:33;;;;;;;2.80;1.20;;;;;;;30.47;19.00;99777.38;5039737;28;20090;-71
2022/10/06 11:16:36;;;;;;;10.75;1.15;;;;;;;30.32;19.11;99780.41;5072500;28;20032;-69
2022/10/06 11:19:28;;;;;;;2.00;0.98;;;;;;;30.07;19.17;99767.78;5072458;28;20086;-71
2022/10/06 11:22:01;;;;;;;4.25;1.10;;;;;;;29.89;19.09;99765.84;5071347;28;20048;-71
2022/10/06 11:24:56;;;;;;;2.65;1.27;;;;;;;29.72;19.62;99762.84;5059570;28;20090;-70
2022/10/06 11:27:26;;;;;;;8.95;1.48;;;;;;;29.60;20.08;99764.56;5053271;28;20029;-70
2022/10/06 11:30:14;;;;;;;5.85;1.02;;;;;;;29.37;20.37;99757.06;5036507;28;20025;-70
2022/10/06 11:33:18;;;;;;;;;;;;;;;29.30;20.45;99757.06;5037134;28;20049;-69
2022/10/06 11:35:43;;;;;;;2.75;1.30;;;;;;;29.20;20.43;99752.16;5035209;28;19913;-69
2022/10/06 11:38:17;;;;;;;3.78;1.15;;;;;;;29.11;20.67;99745.34;5002434;28;20090;-70
2022/10/06 11:41:38;;;;;;;5.45;1.35;;;;;;;28.95;21.03;99743.16;5019479;28;20067;-70
2022/10/06 11:44:35;;;;;;;4.10;1.00;;;;;;;28.81;21.08;99745.06;4962908;28;20098;-70
2022/10/06 11:47:13;;;;;;;3.15;1.02;;;;;;;28.78;21.29;99737.44;4959591;28;20058;-70
2022/10/06 11:49:57;;;;;;;3.92;1.10;;;;;;;28.65;21.18;99730.25;4926394;28;20031;-70
2022/10/06 11:52:22;;;;;;;4.40;1.10;;;;;;;28.52;21.04;99725.69;4957518;28;20045;-69
2022/10/06 11:54:50;;;;;;;4.13;1.20;;;;;;;28.40;21.41;99720.16;4973064;28;20038;-70
2022/10/06 11:57:22;;;;;;;4.68;1.15;;;;;;;28.32;21.37;99723.88;4973053;28;20561;-69
2022/10/06 12:00:13;;;;;;;3.95;1.02;;;;;;;28.19;21.54;99728.44;4972967;28;20129;-69
2022/10/06 12:02:40;;;;;;;3.15;1.00;;;;;;;28.03;21.52;99718.97;4934456;29;20072;-69